ENFL/FRO METAR and TAF weather

Enter ICAO airport designator
Station Type Date Time Source
ENFL METAR 2019/06/16 07:50 UTC NOAA

ENFL 160750Z 22002KT 9999 -DZRA SCT035 BKN065 15/13 Q1011


Station Type Date Time Source
ENFL Decoded METAR 2019/06/16 07:50 UTC NOAA

Floro, Norway (ENFL) 61-35N 005-02E 9M
Jun 16, 2019 - 03:50 AM EDT / 2019.06.16 0750 UTC
Wind: from the SW (220 degrees) at 2 MPH (2 KT):0
Visibility: greater than 7 mile(s):0
Sky conditions: mostly cloudy
Weather: light drizzle, rain
Temperature: 59 F (15 C)
Dew Point: 55 F (13 C)
Relative Humidity: 87%
Pressure (altimeter): 29.85 in. Hg (1011 hPa)
ob: ENFL 160750Z 22002KT 9999 -DZRA SCT035 BKN065 15/13 Q1011
cycle: 8

Station Type Date Time Source
ENFL TAF 2010/02/05 07:50 UTC NOAA

METAR ENFL 050750Z 16019KT 140V200 9999 FEW015 SCT030 BKN055 03/M03 Q1011

Example: see airport list